createdAt,value
2023-04-08T00:02:21.357Z,84.15
2023-04-08T00:04:48.907Z,84.08
2023-04-08T00:07:16.396Z,84.13
2023-04-08T00:09:43.873Z,84.13
2023-04-08T00:12:11.425Z,84.08
2023-04-08T00:14:38.941Z,83.89
2023-04-08T00:17:06.513Z,83.79
2023-04-08T00:19:36.240Z,83.85
2023-04-08T00:22:03.896Z,83.86
2023-04-08T00:24:31.465Z,83.70
2023-04-08T00:26:58.829Z,83.85
2023-04-08T00:29:26.395Z,84.53
2023-04-08T00:31:54.290Z,84.53
2023-04-08T00:34:22.036Z,84.56
2023-04-08T00:36:49.443Z,84.46
2023-04-08T00:39:16.932Z,84.41
2023-04-08T00:41:44.498Z,84.31
2023-04-08T00:44:11.939Z,84.14
2023-04-08T00:46:40.698Z,84.01
2023-04-08T00:49:08.205Z,84.04
2023-04-08T00:51:39.117Z,84.05
2023-04-08T00:54:07.425Z,83.89
2023-04-08T00:56:36.661Z,83.77
2023-04-08T00:59:05.293Z,83.74
2023-04-08T01:02:09.854Z,83.99
2023-04-08T01:05:03.383Z,84.30
2023-04-08T01:07:48.976Z,84.54
2023-04-08T01:10:22.726Z,84.58
2023-04-08T01:13:12.759Z,84.53
2023-04-08T01:15:44.173Z,84.37
2023-04-08T01:18:15.720Z,84.46
2023-04-08T01:20:44.623Z,84.51
2023-04-08T01:24:05.110Z,84.43
2023-04-08T01:26:33.397Z,84.08
2023-04-08T01:29:03.148Z,83.89
2023-04-08T01:31:32.393Z,83.87
2023-04-08T01:34:04.623Z,83.71
2023-04-08T01:36:33.310Z,83.49
2023-04-08T01:39:04.076Z,83.42
2023-04-08T01:41:36.102Z,83.48
2023-04-08T01:44:04.968Z,83.57
2023-04-08T01:46:33.955Z,83.63
2023-04-08T01:49:05.924Z,83.80
2023-04-08T01:51:37.735Z,84.18
2023-04-08T01:54:06.348Z,84.49
2023-04-08T01:56:39.463Z,84.92
2023-04-08T01:59:14.147Z,84.60
2023-04-08T02:01:45.560Z,84.41
2023-04-08T02:04:13.909Z,84.44
2023-04-08T02:06:41.517Z,84.63
2023-04-08T02:09:09.126Z,84.76
2023-04-08T02:11:37.756Z,84.68
2023-04-08T02:14:05.772Z,84.84
2023-04-08T02:16:42.691Z,85.12
2023-04-08T02:19:29.729Z,85.17
2023-04-08T02:22:18.753Z,85.20
2023-04-08T02:24:47.381Z,84.98
2023-04-08T02:27:17.106Z,84.72
2023-04-08T02:29:47.276Z,84.55
2023-04-08T02:32:17.196Z,84.50
2023-04-08T02:34:48.152Z,84.36
2023-04-08T02:37:15.874Z,84.37
2023-04-08T02:39:43.374Z,84.81
2023-04-08T02:42:12.119Z,84.82
2023-04-08T02:44:39.572Z,84.99
2023-04-08T02:47:06.977Z,85.26
2023-04-08T02:49:35.858Z,85.34
2023-04-08T02:52:03.360Z,85.24
2023-04-08T02:54:31.122Z,85.18
2023-04-08T02:56:59.767Z,85.06
2023-04-08T02:59:27.150Z,85.07
2023-04-08T03:01:54.644Z,85.10
2023-04-08T03:04:22.095Z,85.15
2023-04-08T03:06:49.547Z,85.10
2023-04-08T03:09:17.172Z,85.14
2023-04-08T03:11:44.993Z,85.38
2023-04-08T03:14:12.402Z,85.28
2023-04-08T03:16:39.875Z,85.06
2023-04-08T03:19:07.237Z,85.01
2023-04-08T03:21:34.676Z,84.94
2023-04-08T03:24:02.074Z,84.81
2023-04-08T03:26:29.532Z,84.68
2023-04-08T03:28:56.998Z,84.60
2023-04-08T03:31:24.489Z,84.56
2023-04-08T03:33:52.063Z,84.44
2023-04-08T03:36:19.709Z,84.39
2023-04-08T03:38:47.410Z,84.29
2023-04-08T03:41:14.926Z,84.30
2023-04-08T03:43:42.417Z,84.37
2023-04-08T03:46:09.883Z,84.29
2023-04-08T03:48:37.409Z,84.33
2023-04-08T03:51:04.950Z,84.30
2023-04-08T03:53:32.444Z,84.39
2023-04-08T03:55:59.996Z,84.46
2023-04-08T03:58:27.410Z,84.68
2023-04-08T04:00:54.780Z,84.66
2023-04-08T04:03:22.970Z,84.77
2023-04-08T04:05:51.107Z,84.89
2023-04-08T04:08:18.790Z,85.00
2023-04-08T04:10:46.240Z,85.18
2023-04-08T04:13:13.773Z,85.51
2023-04-08T04:15:41.593Z,85.52
2023-04-08T04:18:09.311Z,85.24
2023-04-08T04:20:42.043Z,85.18
2023-04-08T04:23:10.099Z,85.35
2023-04-08T04:25:39.493Z,85.43
2023-04-08T04:28:07.975Z,85.47
2023-04-08T04:30:37.665Z,85.44
2023-04-08T04:33:06.505Z,85.43
2023-04-08T04:35:34.578Z,85.40
2023-04-08T04:38:02.130Z,85.43
2023-04-08T04:40:29.542Z,85.41
2023-04-08T04:42:56.992Z,85.42
2023-04-08T04:45:24.309Z,85.44
2023-04-08T04:47:51.735Z,85.45
2023-04-08T04:50:19.128Z,85.43
2023-04-08T04:52:46.572Z,85.32
2023-04-08T04:55:15.828Z,85.31
2023-04-08T04:57:44.493Z,85.26
2023-04-08T05:00:12.270Z,85.27
2023-04-08T05:02:39.568Z,85.05
2023-04-08T05:05:07.266Z,85.03
2023-04-08T05:07:38.204Z,85.10
2023-04-08T05:10:06.223Z,85.10
2023-04-08T05:12:33.538Z,85.15
2023-04-08T05:15:00.930Z,85.14
2023-04-08T05:17:28.241Z,85.10
2023-04-08T05:19:55.537Z,85.16
2023-04-08T05:22:22.742Z,85.15
2023-04-08T05:24:49.950Z,84.83
2023-04-08T05:27:17.373Z,84.80
2023-04-08T05:29:44.592Z,84.67
2023-04-08T05:32:11.765Z,84.62
2023-04-08T05:34:39.048Z,84.55
2023-04-08T05:37:06.574Z,84.39
2023-04-08T05:39:33.763Z,84.19
2023-04-08T05:42:00.971Z,84.06
2023-04-08T05:44:28.244Z,83.81
2023-04-08T05:46:55.996Z,83.69
2023-04-08T05:49:23.268Z,83.54
2023-04-08T05:51:50.506Z,83.45
2023-04-08T05:54:17.678Z,83.40
2023-04-08T05:56:46.425Z,83.26
2023-04-08T05:59:13.724Z,83.02
2023-04-08T06:01:40.958Z,83.17
2023-04-08T06:04:08.331Z,82.94
2023-04-08T06:06:38.079Z,82.83
2023-04-08T06:09:05.893Z,82.88
2023-04-08T06:11:33.090Z,82.73
2023-04-08T06:14:00.235Z,82.56
2023-04-08T06:16:27.692Z,82.36
2023-04-08T06:18:55.095Z,82.14
2023-04-08T06:21:22.412Z,82.07
2023-04-08T06:23:49.580Z,81.64
2023-04-08T06:26:17.043Z,81.36
2023-04-08T06:28:44.373Z,80.90
2023-04-08T06:31:12.041Z,80.42
2023-04-08T06:33:39.346Z,80.15
2023-04-08T06:36:08.031Z,79.73
2023-04-08T06:38:35.773Z,79.12
2023-04-08T06:41:06.861Z,78.64
2023-04-08T06:43:37.924Z,78.04
2023-04-08T06:46:05.389Z,77.47
2023-04-08T06:48:32.624Z,77.08
2023-04-08T06:51:01.311Z,76.31
2023-04-08T06:53:32.812Z,76.59
2023-04-08T06:56:00.534Z,75.47
2023-04-08T06:58:27.741Z,75.56
2023-04-08T07:00:56.262Z,73.89
2023-04-08T07:03:24.038Z,73.71
2023-04-08T07:05:51.428Z,73.27
2023-04-08T07:08:19.122Z,72.75
2023-04-08T07:10:46.361Z,72.11
2023-04-08T07:13:13.961Z,70.05
2023-04-08T07:15:41.666Z,68.81
2023-04-08T07:18:08.954Z,69.90
2023-04-08T07:20:38.515Z,69.26
2023-04-08T07:23:05.942Z,67.86
2023-04-08T07:25:35.235Z,66.67
2023-04-08T07:28:02.498Z,65.14
2023-04-08T07:30:29.712Z,64.94
2023-04-08T07:32:59.317Z,65.17
2023-04-08T07:35:28.314Z,63.89
2023-04-08T07:37:55.786Z,62.44
2023-04-08T07:40:23.169Z,61.57
2023-04-08T07:42:50.363Z,62.50
2023-04-08T07:45:17.835Z,61.95
2023-04-08T07:47:45.101Z,62.93
2023-04-08T07:50:12.486Z,60.19
2023-04-08T07:52:39.781Z,62.03
2023-04-08T07:55:07.705Z,61.98
2023-04-08T07:57:35.116Z,60.17
2023-04-08T08:00:03.713Z,61.18
2023-04-08T08:02:40.628Z,59.96
2023-04-08T08:05:08.379Z,58.81
2023-04-08T08:07:35.691Z,60.02
2023-04-08T08:10:02.974Z,61.02
2023-04-08T08:12:30.425Z,60.60
2023-04-08T08:14:59.156Z,59.78
2023-04-08T08:17:27.694Z,62.77
2023-04-08T08:19:55.425Z,62.03
2023-04-08T08:22:22.885Z,62.41
2023-04-08T08:24:50.086Z,62.37
2023-04-08T08:27:17.348Z,60.96
2023-04-08T08:29:44.597Z,58.26
2023-04-08T08:32:12.455Z,60.29
2023-04-08T08:34:39.606Z,61.21
2023-04-08T08:37:06.878Z,59.78
2023-04-08T08:39:34.164Z,57.23
2023-04-08T08:42:01.385Z,56.63
2023-04-08T08:44:30.663Z,57.54
2023-04-08T08:46:57.983Z,57.43
2023-04-08T08:49:25.443Z,56.54
2023-04-08T08:51:54.878Z,54.02
2023-04-08T08:54:22.319Z,55.41
2023-04-08T08:56:49.568Z,55.88
2023-04-08T08:59:16.821Z,55.42
2023-04-08T09:01:44.251Z,51.96
2023-04-08T09:04:18.447Z,52.37
2023-04-08T09:07:07.732Z,51.56
2023-04-08T09:09:49.329Z,51.67
2023-04-08T09:12:18.026Z,51.79
2023-04-08T09:14:45.533Z,53.02
2023-04-08T09:17:12.791Z,50.07
2023-04-08T09:19:40.364Z,50.09
2023-04-08T09:22:08.951Z,49.46
2023-04-08T09:24:37.544Z,50.26
2023-04-08T09:27:05.902Z,50.86
2023-04-08T09:29:37.377Z,51.09
2023-04-08T09:32:06.809Z,52.28
2023-04-08T09:34:34.583Z,52.96
2023-04-08T09:37:02.310Z,54.18
2023-04-08T09:39:30.678Z,53.48
2023-04-08T09:42:01.493Z,55.60
2023-04-08T09:44:30.637Z,57.37
2023-04-08T09:47:20.329Z,56.83
2023-04-08T09:49:53.886Z,58.02
2023-04-08T09:52:46.751Z,58.84
2023-04-08T09:55:14.779Z,59.82
2023-04-08T09:58:03.984Z,60.49
2023-04-08T10:00:44.069Z,61.23
2023-04-08T10:03:19.228Z,62.08
2023-04-08T10:05:47.344Z,61.44
2023-04-08T10:08:15.495Z,59.86
2023-04-08T10:10:43.426Z,60.30
2023-04-08T10:13:11.051Z,57.40
2023-04-08T10:15:40.841Z,56.39
2023-04-08T10:18:11.227Z,56.83
2023-04-08T10:20:38.674Z,56.76
2023-04-08T10:23:09.708Z,56.73
2023-04-08T10:25:41.698Z,57.28
2023-04-08T10:28:11.934Z,56.96
2023-04-08T10:30:40.395Z,58.19
2023-04-08T10:33:13.449Z,57.22
2023-04-08T10:35:48.926Z,60.15
2023-04-08T10:38:17.751Z,59.09
2023-04-08T10:40:45.981Z,58.77
2023-04-08T10:43:14.352Z,57.76
2023-04-08T10:45:43.131Z,56.67
2023-04-08T10:48:14.153Z,56.97
2023-04-08T10:50:41.911Z,57.24
2023-04-08T10:53:11.218Z,57.15
2023-04-08T10:55:38.697Z,56.36
2023-04-08T10:58:10.313Z,58.53
2023-04-08T11:00:39.711Z,59.31
2023-04-08T11:03:09.231Z,59.24
2023-04-08T11:05:38.186Z,60.18
2023-04-08T11:08:06.419Z,60.30
2023-04-08T11:10:41.337Z,61.94
2023-04-08T11:13:09.976Z,63.17
2023-04-08T11:15:37.795Z,63.65
2023-04-08T11:18:05.681Z,63.64
2023-04-08T11:20:37.136Z,64.41
2023-04-08T11:23:04.321Z,63.87
2023-04-08T11:25:31.999Z,63.85
2023-04-08T11:28:00.432Z,64.22
2023-04-08T11:30:28.991Z,62.76
2023-04-08T11:32:57.015Z,60.98
2023-04-08T11:35:24.480Z,57.75
2023-04-08T11:37:52.386Z,54.55
2023-04-08T11:40:22.207Z,54.11
2023-04-08T11:42:50.228Z,54.96
2023-04-08T11:45:19.954Z,54.83
2023-04-08T11:47:48.459Z,55.29
2023-04-08T11:50:25.845Z,55.44
2023-04-08T11:52:53.574Z,55.78
2023-04-08T11:55:28.716Z,57.43
2023-04-08T11:57:57.423Z,58.34
2023-04-08T12:00:24.617Z,58.83
2023-04-08T12:02:52.739Z,59.27
2023-04-08T12:05:20.505Z,59.46
2023-04-08T12:07:48.212Z,56.79
2023-04-08T12:10:15.544Z,57.28
2023-04-08T12:12:42.835Z,56.96
2023-04-08T12:15:10.838Z,57.49
2023-04-08T12:17:41.178Z,60.37
2023-04-08T12:20:08.972Z,62.40
2023-04-08T12:22:36.793Z,63.42
2023-04-08T12:25:04.407Z,64.32
2023-04-08T12:27:33.544Z,64.08
2023-04-08T12:30:01.560Z,64.89
2023-04-08T12:32:28.995Z,65.81
2023-04-08T12:34:56.261Z,66.10
2023-04-08T12:37:23.755Z,66.96
2023-04-08T12:39:51.604Z,67.78
2023-04-08T12:42:18.788Z,67.80
2023-04-08T12:44:46.453Z,68.46
2023-04-08T12:47:13.654Z,68.61
2023-04-08T12:52:11.206Z,68.23
2023-04-08T12:54:38.413Z,68.15
2023-04-08T12:57:05.792Z,67.51
2023-04-08T12:59:33.556Z,66.87
2023-04-08T13:02:00.898Z,67.15
2023-04-08T13:04:28.182Z,67.32
2023-04-08T13:06:55.721Z,67.39
2023-04-08T13:09:23.005Z,67.90
2023-04-08T13:11:50.361Z,67.74
2023-04-08T13:14:18.290Z,67.97
2023-04-08T13:16:46.317Z,67.86
2023-04-08T13:19:13.636Z,67.48
2023-04-08T13:21:41.075Z,67.67
2023-04-08T13:24:08.260Z,67.52
2023-04-08T13:26:35.485Z,67.36
2023-04-08T13:29:02.885Z,67.14
2023-04-08T13:31:30.379Z,67.12
2023-04-08T13:33:58.321Z,66.81
2023-04-08T13:36:26.848Z,66.07
2023-04-08T13:38:54.750Z,65.46
2023-04-08T13:41:22.081Z,64.55
2023-04-08T13:43:50.503Z,63.10
2023-04-08T13:46:18.503Z,62.24
2023-04-08T13:48:46.380Z,60.79
2023-04-08T13:51:13.987Z,61.00
2023-04-08T13:53:41.228Z,60.07
2023-04-08T13:56:08.615Z,57.19
2023-04-08T13:58:35.806Z,56.93
2023-04-08T14:01:03.252Z,54.68
2023-04-08T14:03:30.524Z,53.53
2023-04-08T14:06:01.120Z,53.75
2023-04-08T14:08:28.941Z,55.61
2023-04-08T14:10:57.486Z,56.54
2023-04-08T14:13:24.697Z,55.23
2023-04-08T14:15:53.774Z,54.93
2023-04-08T14:18:21.406Z,54.16
2023-04-08T14:20:48.554Z,55.59
2023-04-08T14:23:17.040Z,55.33
2023-04-08T14:25:44.403Z,56.52
2023-04-08T14:28:11.621Z,57.31
2023-04-08T14:30:38.882Z,57.13
2023-04-08T14:33:06.457Z,57.11
2023-04-08T14:35:33.866Z,58.76
2023-04-08T14:38:01.545Z,58.11
2023-04-08T14:40:28.953Z,59.39
2023-04-08T14:42:56.432Z,58.75
2023-04-08T14:45:23.840Z,58.99
2023-04-08T14:47:51.139Z,57.90
2023-04-08T14:50:18.914Z,57.61
2023-04-08T14:52:48.548Z,56.61
2023-04-08T14:55:16.768Z,56.31
2023-04-08T14:57:43.970Z,54.57
2023-04-08T15:00:11.808Z,55.59
2023-04-08T15:02:39.231Z,57.04
2023-04-08T15:05:07.145Z,57.24
2023-04-08T15:07:34.642Z,57.58
2023-04-08T15:10:02.052Z,58.31
2023-04-08T15:12:29.530Z,59.16
2023-04-08T15:14:56.782Z,59.36
2023-04-08T15:17:24.714Z,59.91
2023-04-08T15:19:52.386Z,60.14
2023-04-08T15:22:19.821Z,59.76
2023-04-08T15:24:48.063Z,59.51
2023-04-08T15:27:16.073Z,59.73
2023-04-08T15:29:43.292Z,60.02
2023-04-08T15:32:10.910Z,59.78
2023-04-08T15:34:38.122Z,60.47
2023-04-08T15:37:06.441Z,60.11
2023-04-08T15:39:33.672Z,60.31
2023-04-08T15:42:01.518Z,60.70
2023-04-08T15:44:32.304Z,61.21
2023-04-08T15:46:59.623Z,61.89
2023-04-08T15:49:26.879Z,62.52
2023-04-08T15:51:54.122Z,61.12
2023-04-08T15:54:21.461Z,61.52
2023-04-08T15:56:48.646Z,61.47
2023-04-08T15:59:15.992Z,61.93
2023-04-08T16:01:43.362Z,61.81
2023-04-08T16:04:11.233Z,62.23
2023-04-08T16:06:38.496Z,62.33
2023-04-08T16:09:06.466Z,61.76
2023-04-08T16:11:34.204Z,62.34
2023-04-08T16:14:01.947Z,62.34
2023-04-08T16:16:29.823Z,62.79
2023-04-08T16:18:57.018Z,63.26
2023-04-08T16:21:24.266Z,63.67
2023-04-08T16:23:51.718Z,64.59
2023-04-08T16:26:19.872Z,65.03
2023-04-08T16:28:47.229Z,65.76
2023-04-08T16:31:14.453Z,66.06
2023-04-08T16:33:41.825Z,66.39
2023-04-08T16:36:09.347Z,66.78
2023-04-08T16:38:36.697Z,67.07
2023-04-08T16:41:06.292Z,67.56
2023-04-08T16:43:33.649Z,67.98
2023-04-08T16:46:10.684Z,68.04
2023-04-08T16:48:39.192Z,68.19
2023-04-08T16:51:06.896Z,68.26
2023-04-08T16:53:34.162Z,68.66
2023-04-08T16:56:02.295Z,68.79
2023-04-08T16:58:29.657Z,69.13
2023-04-08T17:00:56.872Z,69.24
2023-04-08T17:03:24.216Z,69.79
2023-04-08T17:05:51.845Z,70.86
2023-04-08T17:08:19.333Z,70.84
2023-04-08T17:10:48.597Z,71.32
2023-04-08T17:13:16.023Z,71.88
2023-04-08T17:15:43.441Z,72.58
2023-04-08T17:18:10.599Z,73.13
2023-04-08T17:20:38.300Z,73.60
2023-04-08T17:23:05.874Z,74.14
2023-04-08T17:25:33.080Z,74.95
2023-04-08T17:28:00.290Z,75.27
2023-04-08T17:30:27.576Z,75.47
2023-04-08T17:32:54.735Z,76.02
2023-04-08T17:35:22.156Z,76.21
2023-04-08T17:37:50.280Z,76.76
2023-04-08T17:40:17.740Z,77.36
2023-04-08T17:42:44.943Z,77.65
2023-04-08T17:45:12.290Z,78.03
2023-04-08T17:47:39.595Z,78.02
2023-04-08T17:50:08.305Z,78.16
2023-04-08T17:52:36.646Z,78.07
2023-04-08T17:55:04.138Z,78.14
2023-04-08T17:57:31.344Z,78.40
2023-04-08T17:59:58.518Z,78.64
2023-04-08T18:02:27.519Z,78.62
2023-04-08T18:04:55.883Z,78.35
2023-04-08T18:07:23.102Z,78.27
2023-04-08T18:09:50.384Z,78.22
2023-04-08T18:12:17.678Z,78.15
2023-04-08T18:14:44.932Z,77.96
2023-04-08T18:17:12.361Z,77.88
2023-04-08T18:19:39.565Z,77.73
2023-04-08T18:22:06.779Z,77.68
2023-04-08T18:24:34.140Z,77.56
2023-04-08T18:27:04.785Z,77.82
2023-04-08T18:29:32.299Z,77.95
2023-04-08T18:31:59.573Z,78.15
2023-04-08T18:34:27.094Z,78.22
2023-04-08T18:36:54.316Z,78.29
2023-04-08T18:39:21.473Z,78.71
2023-04-08T18:41:48.734Z,78.95
2023-04-08T18:44:15.918Z,79.14
2023-04-08T18:46:43.290Z,79.27
2023-04-08T18:49:10.587Z,79.40
2023-04-08T18:51:38.145Z,79.66
2023-04-08T18:54:06.442Z,80.31
2023-04-08T18:56:34.917Z,80.56
2023-04-08T18:59:03.638Z,80.72
2023-04-08T19:01:32.643Z,80.89
2023-04-08T19:04:10.717Z,81.28
2023-04-08T19:06:39.688Z,81.60
2023-04-08T19:09:07.428Z,82.08
2023-04-08T19:11:34.610Z,82.05
2023-04-08T19:14:01.835Z,82.30
2023-04-08T19:16:29.087Z,82.40
2023-04-08T19:18:57.162Z,82.67
2023-04-08T19:21:24.417Z,83.05
2023-04-08T19:23:51.954Z,82.94
2023-04-08T19:26:19.457Z,83.22
2023-04-08T19:28:47.175Z,83.13
2023-04-08T19:31:18.377Z,83.04
2023-04-08T19:33:45.928Z,82.99
2023-04-08T19:36:13.301Z,82.72
2023-04-08T19:38:40.627Z,82.79
2023-04-08T19:41:07.865Z,83.07
2023-04-08T19:43:35.481Z,83.58
2023-04-08T19:46:03.645Z,83.88
2023-04-08T19:48:32.594Z,84.10
2023-04-08T19:51:00.059Z,84.37
2023-04-08T19:53:27.317Z,84.47
2023-04-08T19:56:03.391Z,84.71
2023-04-08T19:58:30.590Z,84.92
2023-04-08T20:00:57.930Z,85.22
2023-04-08T20:03:25.960Z,85.41
2023-04-08T20:05:53.288Z,85.65
2023-04-08T20:08:20.583Z,86.07
2023-04-08T20:10:49.538Z,86.38
2023-04-08T20:13:16.888Z,86.70
2023-04-08T20:15:45.210Z,86.97
2023-04-08T20:18:12.585Z,86.96
2023-04-08T20:20:40.095Z,86.87
2023-04-08T20:23:07.257Z,86.68
2023-04-08T20:25:34.507Z,86.80
2023-04-08T20:28:01.675Z,86.92
2023-04-08T20:30:29.005Z,86.95
2023-04-08T20:32:56.361Z,86.80
2023-04-08T20:35:23.552Z,86.78
2023-04-08T20:37:51.178Z,86.77
2023-04-08T20:40:18.561Z,86.87
2023-04-08T20:42:46.201Z,86.96
2023-04-08T20:45:13.476Z,86.88
2023-04-08T20:47:40.734Z,86.92
2023-04-08T20:50:09.052Z,86.95
2023-04-08T20:52:36.230Z,86.95
2023-04-08T20:55:03.485Z,87.12
2023-04-08T20:57:30.817Z,87.25
2023-04-08T20:59:58.170Z,87.30
2023-04-08T21:02:25.605Z,87.19
2023-04-08T21:04:52.844Z,87.12
2023-04-08T21:07:20.372Z,87.14
2023-04-08T21:09:48.552Z,87.18
2023-04-08T21:12:15.947Z,87.49
2023-04-08T21:14:45.313Z,87.62
2023-04-08T21:17:12.725Z,87.64
2023-04-08T21:19:39.947Z,87.69
2023-04-08T21:22:07.254Z,87.82
2023-04-08T21:24:34.430Z,87.82
2023-04-08T21:27:01.690Z,87.79
2023-04-08T21:29:30.406Z,87.73
2023-04-08T21:31:57.758Z,87.75
2023-04-08T21:34:25.034Z,87.88
2023-04-08T21:36:52.253Z,88.19
2023-04-08T21:39:19.819Z,88.35
2023-04-08T21:41:48.030Z,88.36
2023-04-08T21:44:15.605Z,88.39
2023-04-08T21:46:42.953Z,88.31
2023-04-08T21:49:11.261Z,88.16
2023-04-08T21:51:39.247Z,88.14
2023-04-08T21:54:07.171Z,88.08
2023-04-08T21:56:34.454Z,88.11
2023-04-08T21:59:01.678Z,88.08
2023-04-08T22:01:29.104Z,88.00
2023-04-08T22:03:56.863Z,87.94
2023-04-08T22:06:31.992Z,87.96
2023-04-08T22:09:00.024Z,87.98
2023-04-08T22:11:27.457Z,87.94
2023-04-08T22:13:54.680Z,87.89
2023-04-08T22:16:21.925Z,87.87
2023-04-08T22:18:49.185Z,87.80
2023-04-08T22:21:16.878Z,87.67
2023-04-08T22:23:44.124Z,87.57
2023-04-08T22:26:11.303Z,87.48
2023-04-08T22:28:38.515Z,87.45
2023-04-08T22:31:10.973Z,87.31
2023-04-08T22:33:39.106Z,87.25
2023-04-08T22:36:06.597Z,87.27
2023-04-08T22:38:33.859Z,87.38
2023-04-08T22:41:01.338Z,87.33
2023-04-08T22:43:28.722Z,87.32
2023-04-08T22:45:56.089Z,87.26
2023-04-08T22:48:23.303Z,87.18
2023-04-08T22:50:51.406Z,87.34
2023-04-08T22:53:18.685Z,87.43
2023-04-08T22:55:46.029Z,87.61
2023-04-08T22:58:13.270Z,88.00
2023-04-08T23:00:40.726Z,88.24
2023-04-08T23:03:07.963Z,88.53
2023-04-08T23:05:35.188Z,88.78
2023-04-08T23:08:02.409Z,89.05
2023-04-08T23:10:29.712Z,89.24
2023-04-08T23:12:57.045Z,89.40
2023-04-08T23:15:24.201Z,89.59
2023-04-08T23:17:51.434Z,89.86
2023-04-08T23:20:18.666Z,90.11
2023-04-08T23:22:46.459Z,90.22
2023-04-08T23:25:13.929Z,90.22
2023-04-08T23:27:41.121Z,90.31
2023-04-08T23:30:08.825Z,90.23
2023-04-08T23:32:36.189Z,90.22
2023-04-08T23:35:03.599Z,90.23
2023-04-08T23:37:31.164Z,90.41
2023-04-08T23:39:58.393Z,90.48
2023-04-08T23:42:27.298Z,90.58
2023-04-08T23:44:54.961Z,90.69
2023-04-08T23:47:22.369Z,90.74
2023-04-08T23:49:49.678Z,90.83
2023-04-08T23:52:17.008Z,90.89
2023-04-08T23:54:44.210Z,91.03
2023-04-08T23:57:11.480Z,91.00
2023-04-08T23:59:38.818Z,90.90
